E.r. Basel — A8XQ4 — position and weather

sailwx.info

Track history (hours):
 
Tides and Currents Weather Stations Pressure Air Temp Water Temp Dewpoint Dewpoint Depression Visibility Wind Speed Wind Dir Waves Ship Positions

E.r. Basel

Last reported at 2014-May-27 20:17 UTC. Time now 2014-Jul-25 16:03 UTC.
Position N 35°21' W 024°12'.
Warning: this ship's position is 58 days out of date.

Length 187 m; draft 9.7 m.

Type: Cargo ship. MMSI: 636092149.

Date/timePositionNaut miles runAvg speedWind from/ knotsBaromVisibWave heightAir tempDewpointWater temp
2014-May-27 20:17N 35°21' W 024°12'811.7
2014-May-27 19:34N 35°28' W 024°05'612.0
2014-May-27 19:04N 35°32' W 024°01'612.0
2014-May-27 18:33N 35°37' W 023°56'611.9
2014-May-27 18:04N 35°41' W 023°51'612.1
2014-May-27 17:33N 35°46' W 023°46'711.7
2014-May-27 16:58N 35°51' W 023°41'1011.6
2014-May-27 16:06N 35°59' W 023°33'311.6
2014-May-27 15:51N 36°01' W 023°30'1012.0
2014-May-27 14:59N 36°09' W 023°22'611.9
2014-May-27 14:28N 36°14' W 023°17'611.7
2014-May-27 13:58N 36°18' W 023°13'511.4
2014-May-27 13:31N 36°22' W 023°08'511.5
2014-May-27 13:04N 36°26' W 023°04'711.3
2014-May-27 12:25N 36°32' W 022°58'411.4
2014-May-27 12:04N 36°35' W 022°55'611.3
2014-May-27 11:33N 36°39' W 022°50'511.2
2014-May-27 11:04N 36°43' W 022°46'1211.1
2014-May-27 09:59N 36°53' W 022°36'511.4
2014-May-27 09:30N 36°57' W 022°32'  
2014-May-22 16:14N 50°11' W 001°48'7 9.4
2014-May-22 15:31N 50°13' W 001°38'9 8.9
2014-May-22 14:33N 50°15' W 001°25'9 8.6
2014-May-22 13:33N 50°17' W 001°12'9 9.3
2014-May-22 12:33N 50°20' W 000°58'1010.5
2014-May-22 11:33N 50°23' W 000°42'1211.8
2014-May-22 10:32N 50°26' W 000°24'1312.5
2014-May-22 09:30N 50°30' W 000°04'1212.4
2014-May-22 08:33N 50°33' E 000°14'1211.8
2014-May-22 07:33N 50°36' E 000°31'1010.6
2014-May-22 06:37N 50°41' E 000°44'10 9.4
2014-May-22 05:33N 50°48' E 000°56'8 8.5
2014-May-22 04:33N 50°53' E 001°07'9 8.4
2014-May-22 03:30N 50°59' E 001°18'8 8.9
2014-May-22 02:33N 51°05' E 001°27'1110.9
2014-May-22 01:33N 51°11' E 001°41'3511.6
2014-May-21 22:31N 51°40' E 002°13'11 9.8
2014-May-21 21:21N 51°48' E 002°26'45110.8
2014-May-20 03:33N 57°50' E 010°13'1111.2
2014-May-20 02:33N 57°52' E 010°33'1110.6
2014-May-20 01:33N 57°48' E 010°52'1110.6
2014-May-20 00:33N 57°41' E 011°07'1111.0
2014-May-19 23:33N 57°33' E 011°21'1111.2
2014-May-19 22:33N 57°23' E 011°29'1111.1
2014-May-19 21:33N 57°12' E 011°36'1110.8
2014-May-19 20:33N 57°02' E 011°43'1111.1
2014-May-19 19:33N 56°52' E 011°50'1010.1
2014-May-19 18:32N 56°42' E 011°50'1110.9
2014-May-19 17:31N 56°32' E 011°40'118 9.7
2014-May-19 05:20N 54°37' E 010°58'7 9.2
2014-May-19 04:32N 54°36' E 011°11'1111.5
2014-May-19 03:33N 54°31' E 011°28'1211.9
2014-May-19 02:33N 54°26' E 011°47'1211.5
2014-May-19 01:33N 54°26' E 012°07'1110.9
2014-May-19 00:33N 54°36' E 012°14'1111.1
2014-May-18 23:34N 54°42' E 012°30'1211.5
2014-May-18 22:33N 54°48' E 012°47'1310.9
2014-May-18 21:23N 54°53' E 013°07'1011.1
2014-May-18 20:29N 54°56' E 013°24'1011.2
2014-May-18 19:33N 54°60' E 013°41'1211.0
2014-May-18 18:28N 55°04' E 014°01'1010.7
2014-May-18 17:32N 55°11' E 014°14'17011.0
2014-May-18 02:07N 56°24' E 018°47'2111.5
2014-May-18 00:17N 56°42' E 019°05'  
Track history (hours):
 
Tides and Currents Weather Stations Pressure Air Temp Water Temp Dewpoint Dewpoint Depression Visibility Wind Speed Wind Dir Waves Ship Positions

E.r. Basel

Last reported at 2014-May-27 20:17 UTC. Time now 2014-Jul-25 16:03 UTC.
Position N 35°21' W 024°12'.
Warning: this ship's position is 58 days out of date.

Length 187 m; draft 9.7 m.

Type: Cargo ship. MMSI: 636092149.

Date/timePositionNaut miles runAvg speedWind from/ knotsBaromVisibWave heightAir tempDewpointWater temp
2014-May-27 20:17N 35°21' W 024°12'811.7
2014-May-27 19:34N 35°28' W 024°05'612.0
2014-May-27 19:04N 35°32' W 024°01'612.0
2014-May-27 18:33N 35°37' W 023°56'611.9
2014-May-27 18:04N 35°41' W 023°51'612.1
2014-May-27 17:33N 35°46' W 023°46'711.7
2014-May-27 16:58N 35°51' W 023°41'1011.6
2014-May-27 16:06N 35°59' W 023°33'311.6
2014-May-27 15:51N 36°01' W 023°30'1012.0
2014-May-27 14:59N 36°09' W 023°22'611.9
2014-May-27 14:28N 36°14' W 023°17'611.7
2014-May-27 13:58N 36°18' W 023°13'511.4
2014-May-27 13:31N 36°22' W 023°08'511.5
2014-May-27 13:04N 36°26' W 023°04'711.3
2014-May-27 12:25N 36°32' W 022°58'411.4
2014-May-27 12:04N 36°35' W 022°55'611.3
2014-May-27 11:33N 36°39' W 022°50'511.2
2014-May-27 11:04N 36°43' W 022°46'1211.1
2014-May-27 09:59N 36°53' W 022°36'511.4
2014-May-27 09:30N 36°57' W 022°32'  
2014-May-22 16:14N 50°11' W 001°48'7 9.4
2014-May-22 15:31N 50°13' W 001°38'9 8.9
2014-May-22 14:33N 50°15' W 001°25'9 8.6
2014-May-22 13:33N 50°17' W 001°12'9 9.3
2014-May-22 12:33N 50°20' W 000°58'1010.5
2014-May-22 11:33N 50°23' W 000°42'1211.8
2014-May-22 10:32N 50°26' W 000°24'1312.5
2014-May-22 09:30N 50°30' W 000°04'1212.4
2014-May-22 08:33N 50°33' E 000°14'1211.8
2014-May-22 07:33N 50°36' E 000°31'1010.6
2014-May-22 06:37N 50°41' E 000°44'10 9.4
2014-May-22 05:33N 50°48' E 000°56'8 8.5
2014-May-22 04:33N 50°53' E 001°07'9 8.4
2014-May-22 03:30N 50°59' E 001°18'8 8.9
2014-May-22 02:33N 51°05' E 001°27'1110.9
2014-May-22 01:33N 51°11' E 001°41'3511.6
2014-May-21 22:31N 51°40' E 002°13'11 9.8
2014-May-21 21:21N 51°48' E 002°26'45110.8
2014-May-20 03:33N 57°50' E 010°13'1111.2
2014-May-20 02:33N 57°52' E 010°33'1110.6
2014-May-20 01:33N 57°48' E 010°52'1110.6
2014-May-20 00:33N 57°41' E 011°07'1111.0
2014-May-19 23:33N 57°33' E 011°21'1111.2
2014-May-19 22:33N 57°23' E 011°29'1111.1
2014-May-19 21:33N 57°12' E 011°36'1110.8
2014-May-19 20:33N 57°02' E 011°43'1111.1
2014-May-19 19:33N 56°52' E 011°50'1010.1
2014-May-19 18:32N 56°42' E 011°50'1110.9
2014-May-19 17:31N 56°32' E 011°40'118 9.7
2014-May-19 05:20N 54°37' E 010°58'7 9.2
2014-May-19 04:32N 54°36' E 011°11'1111.5
2014-May-19 03:33N 54°31' E 011°28'1211.9
2014-May-19 02:33N 54°26' E 011°47'1211.5
2014-May-19 01:33N 54°26' E 012°07'1110.9
2014-May-19 00:33N 54°36' E 012°14'1111.1
2014-May-18 23:34N 54°42' E 012°30'1211.5
2014-May-18 22:33N 54°48' E 012°47'1310.9
2014-May-18 21:23N 54°53' E 013°07'1011.1
2014-May-18 20:29N 54°56' E 013°24'1011.2
2014-May-18 19:33N 54°60' E 013°41'1211.0
2014-May-18 18:28N 55°04' E 014°01'1010.7
2014-May-18 17:32N 55°11' E 014°14'17011.0
2014-May-18 02:07N 56°24' E 018°47'2111.5
2014-May-18 00:17N 56°42' E 019°05'  

Dump ship's entire track history